Hostname: pi-star
Pi-Star:3.4.17 / Dashboard: 20210111

Pi-Star Digital Voice Dashboard for MW0MWZ

Dashboard | Admin | Configuration



DAPNET Gateway Activity
Time (GMT)Time in GMT time zone Time SlotMessage Mode TargetRIC / CapCode of the receiving Pager MessageMessage contents
23:28:00 Jan 21st Slot 0 0002504 [Skyper OTA Time] 232800 210121
23:24:09 Jan 21st Slot 12 0002504 [Skyper OTA Time] 232400 210121
23:22:01 Jan 21st Slot 8 0002504 [Skyper OTA Time] 232200 210121
23:21:10 Jan 21st Slot 0 0351172 M0GLJ: LCPH 212300Z 04007KT 9999 FEW025 BKN050 10/05 Q1030
23:21:10 Jan 21st Slot 0 0351172 M0GLJ: EGNX 212250Z 26014KT 9999 FEW022 02/M00 Q0984
23:20:19 Jan 21st Slot 8 0000008 mw0mwz
23:18:11 Jan 21st Slot 4 0002504 [Skyper OTA Time] 231800 210121
23:16:03 Jan 21st Slot 0 0002504 [Skyper OTA Time] 231600 210121
23:14:00 Jan 21st Slot 12 0002504 [Skyper OTA Time] 231400 210121
23:12:12 Jan 21st Slot 12 0002504 [Skyper OTA Time] 231200 210121
23:10:04 Jan 21st Slot 8 0000008 mw0mwz
23:10:04 Jan 21st Slot 8 0002504 [Skyper OTA Time] 231000 210121
23:08:00 Jan 21st Slot 4 0002504 [Skyper OTA Time] 230800 210121
23:06:14 Jan 21st Slot 4 0002504 [Skyper OTA Time] 230600 210121
23:04:32 Jan 21st Slot 4 0004512 [Skyper Index Rubric:27] uknews
23:04:32 Jan 21st Slot 4 0004512 [Skyper Index Rubric:14] uk-safe-wm
23:04:06 Jan 21st Slot 0 0004512 [Skyper Index Rubric:18] uk-safe-wl
23:04:06 Jan 21st Slot 0 0004512 [Skyper Index Rubric:26] uk-safe-se
23:04:06 Jan 21st Slot 0 0004512 [Skyper Index Rubric:22] uk-safe-st
23:04:06 Jan 21st Slot 0 0004512 [Skyper Index Rubric:11] uk-safe-sw